createdAt,value
2022-09-25T00:01:19.920Z,48.64
2022-09-25T00:03:49.460Z,49.09
2022-09-25T00:06:20.766Z,49.25
2022-09-25T00:08:49.442Z,49.59
2022-09-25T00:11:19.895Z,49.93
2022-09-25T00:13:48.637Z,50.20
2022-09-25T00:16:21.518Z,50.48
2022-09-25T00:19:08.672Z,50.35
2022-09-25T00:21:38.120Z,50.52
2022-09-25T00:24:09.668Z,50.96
2022-09-25T00:26:41.765Z,50.97
2022-09-25T00:29:16.424Z,51.11
2022-09-25T00:31:44.358Z,50.97
2022-09-25T00:34:12.415Z,50.99
2022-09-25T00:36:40.125Z,51.01
2022-09-25T00:39:07.711Z,50.88
2022-09-25T00:41:35.603Z,50.74
2022-09-25T00:44:42.132Z,50.83
2022-09-25T00:47:13.592Z,50.93
2022-09-25T00:49:41.769Z,51.47
2022-09-25T00:52:15.779Z,51.73
2022-09-25T00:54:55.853Z,52.31
2022-09-25T00:57:27.738Z,52.96
2022-09-25T01:00:11.590Z,53.42
2022-09-25T01:02:53.447Z,53.87
2022-09-25T01:05:30.980Z,54.18
2022-09-25T01:08:02.045Z,54.86
2022-09-25T01:10:30.766Z,55.46
2022-09-25T01:13:00.223Z,55.86
2022-09-25T01:15:52.148Z,55.83
2022-09-25T01:18:48.473Z,56.46
2022-09-25T01:21:18.728Z,56.71
2022-09-25T01:23:49.239Z,57.01
2022-09-25T01:26:22.499Z,57.41
2022-09-25T01:28:59.642Z,57.68
2022-09-25T01:31:42.415Z,57.34
2022-09-25T01:34:21.368Z,57.06
2022-09-25T01:37:30.055Z,56.52
2022-09-25T01:40:38.942Z,56.10
2022-09-25T01:43:21.490Z,55.91
2022-09-25T01:45:54.195Z,55.81
2022-09-25T01:48:27.686Z,55.60
2022-09-25T01:51:03.881Z,55.51
2022-09-25T01:53:47.067Z,55.51
2022-09-25T01:57:06.494Z,55.01
2022-09-25T01:59:47.293Z,54.80
2022-09-25T02:02:21.347Z,55.04
2022-09-25T02:05:07.884Z,55.96
2022-09-25T02:07:42.237Z,56.11
2022-09-25T02:10:27.713Z,56.56
2022-09-25T02:13:10.965Z,56.78
2022-09-25T02:15:52.245Z,56.95
2022-09-25T02:18:40.327Z,56.86
2022-09-25T02:21:25.496Z,57.02
2022-09-25T02:24:06.544Z,56.63
2022-09-25T02:26:35.693Z,56.46
2022-09-25T02:29:03.833Z,56.35
2022-09-25T02:31:43.450Z,56.13
2022-09-25T02:34:14.978Z,55.73
2022-09-25T02:36:44.855Z,55.39
2022-09-25T02:39:18.813Z,54.93
2022-09-25T02:42:07.922Z,54.99
2022-09-25T02:45:35.953Z,54.88
2022-09-25T02:48:23.069Z,54.78
2022-09-25T02:51:11.413Z,54.81
2022-09-25T02:54:08.649Z,55.14
2022-09-25T02:57:06.429Z,55.15
2022-09-25T02:59:43.741Z,55.42
2022-09-25T03:02:13.561Z,55.36
2022-09-25T03:04:42.413Z,55.84
2022-09-25T03:07:10.225Z,56.08
2022-09-25T03:09:42.282Z,56.41
2022-09-25T03:12:10.067Z,56.12
2022-09-25T03:14:37.527Z,56.32
2022-09-25T03:17:07.779Z,56.55
2022-09-25T03:19:35.442Z,56.37
2022-09-25T03:22:03.832Z,56.52
2022-09-25T03:24:32.114Z,56.08
2022-09-25T03:26:59.571Z,56.43
2022-09-25T03:29:27.368Z,56.67
2022-09-25T03:31:55.522Z,55.92
2022-09-25T03:34:23.115Z,56.78
2022-09-25T03:36:50.545Z,57.22
2022-09-25T03:39:18.281Z,58.28
2022-09-25T03:41:46.439Z,59.43
2022-09-25T03:44:14.043Z,60.12
2022-09-25T03:46:41.780Z,61.11
2022-09-25T03:49:10.844Z,61.56
2022-09-25T03:51:39.037Z,62.79
2022-09-25T03:54:06.952Z,63.38
2022-09-25T03:56:34.611Z,63.42
2022-09-25T03:59:02.122Z,64.20
2022-09-25T04:01:30.180Z,66.35
2022-09-25T04:03:58.164Z,67.78
2022-09-25T04:06:27.139Z,67.73
2022-09-25T04:08:55.340Z,67.42
2022-09-25T04:11:24.579Z,67.68
2022-09-25T04:13:52.836Z,67.88
2022-09-25T04:16:21.414Z,66.02
2022-09-25T04:18:50.701Z,64.46
2022-09-25T04:21:18.221Z,63.12
2022-09-25T04:24:06.006Z,61.83
2022-09-25T04:26:34.633Z,61.66
2022-09-25T04:29:03.698Z,61.74
2022-09-25T04:31:32.661Z,61.27
2022-09-25T04:34:02.215Z,60.57
2022-09-25T04:36:29.935Z,60.35
2022-09-25T04:38:57.727Z,60.04
2022-09-25T04:41:25.253Z,59.54
2022-09-25T04:43:52.982Z,59.29
2022-09-25T04:46:22.654Z,58.98
2022-09-25T04:48:50.761Z,58.90
2022-09-25T04:51:18.667Z,58.35
2022-09-25T04:53:46.829Z,58.32
2022-09-25T04:56:16.281Z,58.06
2022-09-25T04:58:50.251Z,58.10
2022-09-25T05:01:20.540Z,57.64
2022-09-25T05:03:53.724Z,57.48
2022-09-25T05:06:23.316Z,57.43
2022-09-25T05:08:51.147Z,57.22
2022-09-25T05:11:19.081Z,56.99
2022-09-25T05:13:51.796Z,56.92
2022-09-25T05:16:20.475Z,56.70
2022-09-25T05:18:48.154Z,56.60
2022-09-25T05:21:15.633Z,57.15
2022-09-25T05:23:43.843Z,57.07
2022-09-25T05:26:11.539Z,57.06
2022-09-25T05:28:39.579Z,56.72
2022-09-25T05:31:08.280Z,56.76
2022-09-25T05:33:36.025Z,56.63
2022-09-25T05:36:08.046Z,56.52
2022-09-25T05:38:39.101Z,56.63
2022-09-25T05:41:11.064Z,56.36
2022-09-25T05:43:42.997Z,56.32
2022-09-25T05:46:11.776Z,56.28
2022-09-25T05:48:40.029Z,56.27
2022-09-25T05:51:07.938Z,56.97
2022-09-25T05:53:35.435Z,57.53
2022-09-25T05:56:05.540Z,56.20
2022-09-25T05:58:34.946Z,54.97
2022-09-25T06:01:04.831Z,54.87
2022-09-25T06:03:32.848Z,55.19
2022-09-25T06:06:01.474Z,55.00
2022-09-25T06:08:33.021Z,55.17
2022-09-25T06:11:02.474Z,55.24
2022-09-25T06:13:33.134Z,55.43
2022-09-25T06:16:02.317Z,55.59
2022-09-25T06:18:30.271Z,55.63
2022-09-25T06:21:05.095Z,55.74
2022-09-25T06:23:33.309Z,55.92
2022-09-25T06:26:03.812Z,56.24
2022-09-25T06:28:32.179Z,56.24
2022-09-25T06:31:06.006Z,56.45
2022-09-25T06:33:33.668Z,56.50
2022-09-25T06:36:02.265Z,56.47
2022-09-25T06:38:29.903Z,56.86
2022-09-25T06:41:00.617Z,57.33
2022-09-25T06:43:29.324Z,57.67
2022-09-25T06:46:02.574Z,57.81
2022-09-25T06:48:31.012Z,58.00
2022-09-25T06:51:00.764Z,57.83
2022-09-25T06:53:28.367Z,57.84
2022-09-25T06:56:02.858Z,58.01
2022-09-25T06:58:30.858Z,57.53
2022-09-25T07:00:59.238Z,57.67
2022-09-25T07:03:45.186Z,56.99
2022-09-25T07:06:15.318Z,56.57
2022-09-25T07:08:48.137Z,55.90
2022-09-25T07:11:22.509Z,56.24
2022-09-25T07:13:57.313Z,56.25
2022-09-25T07:16:30.066Z,56.67
2022-09-25T07:19:00.770Z,56.25
2022-09-25T07:21:30.791Z,56.42
2022-09-25T07:23:59.019Z,56.17
2022-09-25T07:26:33.933Z,56.22
2022-09-25T07:29:06.562Z,55.70
2022-09-25T07:31:37.936Z,54.87
2022-09-25T07:34:09.629Z,52.81
2022-09-25T07:36:38.800Z,52.78
2022-09-25T07:39:07.542Z,50.34
2022-09-25T07:41:37.155Z,48.99
2022-09-25T07:44:27.915Z,47.69
2022-09-25T07:46:55.165Z,47.56
2022-09-25T07:49:22.708Z,48.95
2022-09-25T07:51:50.202Z,48.09
2022-09-25T07:54:18.090Z,49.13
2022-09-25T07:56:45.568Z,50.18
2022-09-25T07:59:13.274Z,49.20
2022-09-25T08:01:44.699Z,49.54
2022-09-25T08:04:14.018Z,48.82
2022-09-25T08:06:41.816Z,49.13
2022-09-25T08:09:12.179Z,49.09
2022-09-25T08:11:39.921Z,47.87
2022-09-25T08:14:07.849Z,46.82
2022-09-25T08:16:35.532Z,46.61
2022-09-25T08:19:03.874Z,47.99
2022-09-25T08:21:31.671Z,51.72
2022-09-25T08:23:59.165Z,56.07
2022-09-25T08:26:28.145Z,55.81
2022-09-25T08:28:56.922Z,52.77
2022-09-25T08:31:24.530Z,51.67
2022-09-25T08:33:52.151Z,52.18
2022-09-25T08:36:21.309Z,51.86
2022-09-25T08:38:48.879Z,52.18
2022-09-25T08:41:51.056Z,53.16
2022-09-25T08:44:36.807Z,50.75
2022-09-25T08:47:37.606Z,47.23
2022-09-25T08:50:09.229Z,47.23
2022-09-25T08:52:41.239Z,49.97
2022-09-25T08:56:01.683Z,51.65
2022-09-25T08:58:34.006Z,50.07
2022-09-25T09:01:06.653Z,46.41
2022-09-25T09:04:05.599Z,45.78
2022-09-25T09:06:37.339Z,48.07
2022-09-25T09:09:29.906Z,44.77
2022-09-25T09:12:25.747Z,45.95
2022-09-25T09:15:06.857Z,46.65
2022-09-25T09:17:42.535Z,43.65
2022-09-25T09:20:30.013Z,42.10
2022-09-25T09:22:58.927Z,39.43
2022-09-25T09:25:40.572Z,41.30
2022-09-25T09:28:54.516Z,46.80
2022-09-25T09:31:46.910Z,39.42
2022-09-25T09:35:04.875Z,41.53
2022-09-25T09:37:50.643Z,45.84
2022-09-25T09:40:43.947Z,43.88
2022-09-25T09:43:43.179Z,41.46
2022-09-25T09:46:41.973Z,40.00
2022-09-25T09:49:51.140Z,40.78
2022-09-25T09:52:34.305Z,43.06
2022-09-25T09:55:23.119Z,43.56
2022-09-25T09:57:55.159Z,43.11
2022-09-25T10:00:24.440Z,43.19
2022-09-25T10:03:17.318Z,40.57
2022-09-25T10:05:57.101Z,39.75
2022-09-25T10:08:25.418Z,39.65
2022-09-25T10:10:55.029Z,38.83
2022-09-25T10:13:38.283Z,39.42
2022-09-25T10:16:11.460Z,40.04
2022-09-25T10:18:48.453Z,40.26
2022-09-25T10:21:25.498Z,39.96
2022-09-25T10:23:56.113Z,39.89
2022-09-25T10:26:38.977Z,38.29
2022-09-25T10:29:23.079Z,36.41
2022-09-25T10:32:00.341Z,38.24
2022-09-25T10:34:29.741Z,37.96
2022-09-25T10:36:58.305Z,37.78
2022-09-25T10:39:49.170Z,37.22
2022-09-25T10:42:41.569Z,36.55
2022-09-25T10:45:36.065Z,36.45
2022-09-25T10:48:56.324Z,36.18
2022-09-25T10:51:25.369Z,36.43
2022-09-25T10:54:13.944Z,36.82
2022-09-25T10:56:42.465Z,38.79
2022-09-25T10:59:19.758Z,39.47
2022-09-25T11:01:51.736Z,40.13
2022-09-25T11:04:32.069Z,40.59
2022-09-25T11:07:07.903Z,37.67
2022-09-25T11:09:43.775Z,37.98
2022-09-25T11:12:38.740Z,39.01
2022-09-25T11:15:17.499Z,39.43
2022-09-25T11:17:46.958Z,40.07
2022-09-25T11:20:27.847Z,40.18
2022-09-25T11:23:29.341Z,40.11
2022-09-25T11:26:14.236Z,39.75
2022-09-25T11:29:01.770Z,40.29
2022-09-25T11:31:42.777Z,38.78
2022-09-25T11:34:58.307Z,39.46
2022-09-25T11:37:58.514Z,40.65
2022-09-25T11:41:16.070Z,40.03
2022-09-25T11:44:13.011Z,40.54
2022-09-25T11:46:54.261Z,40.24
2022-09-25T11:49:28.590Z,40.52
2022-09-25T11:52:42.732Z,40.43
2022-09-25T11:55:52.397Z,40.27
2022-09-25T11:58:33.542Z,39.85
2022-09-25T12:01:25.931Z,37.16
2022-09-25T12:04:17.757Z,36.93
2022-09-25T12:07:15.838Z,36.57
2022-09-25T12:10:27.235Z,36.60
2022-09-25T12:13:04.347Z,36.11
2022-09-25T12:16:14.457Z,37.37
2022-09-25T12:19:10.810Z,37.38
2022-09-25T12:22:11.497Z,37.77
2022-09-25T12:24:44.601Z,38.07
2022-09-25T12:27:33.072Z,37.56
2022-09-25T12:30:21.353Z,38.48
2022-09-25T12:33:04.336Z,38.28
2022-09-25T12:35:58.102Z,38.34
2022-09-25T12:38:48.516Z,38.93
2022-09-25T12:41:53.156Z,38.75
2022-09-25T12:44:38.145Z,38.28
2022-09-25T12:47:33.222Z,38.32
2022-09-25T12:50:29.599Z,38.53
2022-09-25T12:53:17.101Z,38.81
2022-09-25T12:55:53.137Z,38.08
2022-09-25T12:58:57.548Z,38.38
2022-09-25T13:01:32.311Z,38.62
2022-09-25T13:04:37.840Z,38.74
2022-09-25T13:07:33.581Z,39.14
2022-09-25T13:10:13.615Z,38.09
2022-09-25T13:12:41.380Z,38.58
2022-09-25T13:15:23.275Z,38.65
2022-09-25T13:17:51.125Z,39.28
2022-09-25T13:20:31.344Z,39.72
2022-09-25T13:23:37.192Z,39.12
2022-09-25T13:26:18.497Z,38.99
2022-09-25T13:29:28.096Z,39.93
2022-09-25T13:32:23.296Z,40.24
2022-09-25T13:35:03.442Z,39.97
2022-09-25T13:37:38.044Z,41.02
2022-09-25T13:40:46.192Z,40.52
2022-09-25T13:43:30.524Z,40.97
2022-09-25T13:46:25.039Z,41.12
2022-09-25T13:48:55.481Z,42.10
2022-09-25T13:51:22.984Z,43.33
2022-09-25T13:56:55.066Z,44.96
2022-09-25T13:59:37.037Z,45.05
2022-09-25T14:02:37.183Z,45.86
2022-09-25T14:05:05.927Z,45.57
2022-09-25T14:07:34.983Z,45.00
2022-09-25T14:10:03.294Z,45.32
2022-09-25T14:12:42.971Z,46.67
2022-09-25T14:15:22.682Z,46.30
2022-09-25T14:17:54.679Z,46.08
2022-09-25T14:20:38.540Z,46.42
2022-09-25T14:23:27.285Z,46.09
2022-09-25T14:26:08.766Z,45.75
2022-09-25T14:28:45.852Z,45.83
2022-09-25T14:31:34.938Z,46.42
2022-09-25T14:34:39.589Z,45.89
2022-09-25T14:38:12.496Z,46.03
2022-09-25T14:41:05.027Z,46.22
2022-09-25T14:43:41.834Z,45.94
2022-09-25T14:46:18.789Z,45.99
2022-09-25T14:49:08.125Z,46.43
2022-09-25T14:51:41.633Z,46.12
2022-09-25T14:54:17.308Z,46.41
2022-09-25T14:56:50.353Z,46.92
2022-09-25T14:59:37.721Z,46.92
2022-09-25T15:02:12.067Z,47.14
2022-09-25T15:04:39.877Z,47.32
2022-09-25T15:07:23.242Z,47.21
2022-09-25T15:09:55.561Z,47.85
2022-09-25T15:12:31.468Z,50.63
2022-09-25T15:15:13.437Z,54.07
2022-09-25T15:17:54.743Z,50.47
2022-09-25T15:20:26.763Z,49.53
2022-09-25T15:23:16.242Z,49.72
2022-09-25T15:25:55.211Z,49.80
2022-09-25T15:28:26.295Z,49.74
2022-09-25T15:31:06.715Z,50.40
2022-09-25T15:33:37.796Z,51.01
2022-09-25T15:36:23.096Z,51.69
2022-09-25T15:39:02.426Z,51.13
2022-09-25T15:41:30.374Z,51.62
2022-09-25T15:44:18.391Z,52.49
2022-09-25T15:46:59.076Z,51.56
2022-09-25T15:49:55.953Z,51.30
2022-09-25T15:52:32.519Z,51.66
2022-09-25T15:55:22.517Z,51.99
2022-09-25T15:57:53.286Z,52.20
2022-09-25T16:00:44.763Z,52.47
2022-09-25T16:03:42.893Z,52.16
2022-09-25T16:06:17.484Z,52.53
2022-09-25T16:08:45.692Z,52.75
2022-09-25T16:11:23.636Z,53.49
2022-09-25T16:14:12.379Z,54.07
2022-09-25T16:16:49.431Z,54.19
2022-09-25T16:19:27.075Z,53.70
2022-09-25T16:21:55.309Z,53.30
2022-09-25T16:24:31.567Z,53.95
2022-09-25T16:27:02.849Z,54.17
2022-09-25T16:29:39.206Z,53.78
2022-09-25T16:32:21.058Z,53.68
2022-09-25T16:35:01.232Z,53.98
2022-09-25T16:37:35.687Z,53.22
2022-09-25T16:40:38.780Z,53.83
2022-09-25T16:43:25.942Z,53.97
2022-09-25T16:46:03.098Z,53.72
2022-09-25T16:48:39.488Z,53.53
2022-09-25T16:51:32.332Z,54.18
2022-09-25T16:54:00.571Z,55.89
2022-09-25T16:56:31.620Z,56.28
2022-09-25T16:58:59.843Z,55.63
2022-09-25T17:01:28.803Z,55.81
2022-09-25T17:04:00.018Z,54.16
2022-09-25T17:06:30.649Z,53.44
2022-09-25T17:08:59.970Z,53.12
2022-09-25T17:11:27.656Z,52.30
2022-09-25T17:13:56.129Z,52.05
2022-09-25T17:16:23.972Z,51.09
2022-09-25T17:18:51.608Z,49.35
2022-09-25T17:21:20.173Z,51.05
2022-09-25T17:23:47.979Z,51.06
2022-09-25T17:26:21.190Z,50.96
2022-09-25T17:28:52.123Z,49.78
2022-09-25T17:31:22.221Z,50.59
2022-09-25T17:33:50.599Z,50.55
2022-09-25T17:36:18.363Z,49.82
2022-09-25T17:38:46.026Z,50.59
2022-09-25T17:41:35.213Z,50.97
2022-09-25T17:44:04.311Z,51.52
2022-09-25T17:46:36.172Z,51.85
2022-09-25T17:49:04.524Z,51.19
2022-09-25T17:51:32.297Z,52.37
2022-09-25T17:54:02.721Z,53.24
2022-09-25T17:56:30.269Z,52.26
2022-09-25T17:58:58.181Z,53.31
2022-09-25T18:01:38.378Z,54.22
2022-09-25T18:04:25.303Z,53.61
2022-09-25T18:06:53.578Z,53.06
2022-09-25T18:09:21.438Z,53.38
2022-09-25T18:11:48.985Z,53.86
2022-09-25T18:14:17.391Z,53.46
2022-09-25T18:16:45.409Z,53.64
2022-09-25T18:19:37.727Z,53.20
2022-09-25T18:22:18.910Z,53.18
2022-09-25T18:24:57.397Z,52.60
2022-09-25T18:27:32.821Z,52.81
2022-09-25T18:30:00.685Z,53.56
2022-09-25T18:32:29.365Z,54.09
2022-09-25T18:34:57.184Z,53.97
2022-09-25T18:37:24.817Z,54.02
2022-09-25T18:39:52.790Z,54.21
2022-09-25T18:42:20.454Z,54.70
2022-09-25T18:44:48.771Z,54.81
2022-09-25T18:47:16.751Z,54.88
2022-09-25T18:49:44.381Z,55.10
2022-09-25T18:52:11.998Z,54.82
2022-09-25T18:54:42.241Z,54.60
2022-09-25T18:57:12.077Z,54.11
2022-09-25T18:59:40.962Z,54.51
2022-09-25T19:02:21.490Z,54.45
2022-09-25T19:04:51.194Z,54.43
2022-09-25T19:07:19.764Z,54.51
2022-09-25T19:09:47.328Z,54.52
2022-09-25T19:12:17.106Z,54.74
2022-09-25T19:14:46.074Z,54.77
2022-09-25T19:17:18.339Z,54.85
2022-09-25T19:19:46.034Z,55.04
2022-09-25T19:22:19.805Z,54.99
2022-09-25T19:24:48.818Z,56.48
2022-09-25T19:27:18.662Z,58.13
2022-09-25T19:29:46.990Z,58.13
2022-09-25T19:32:17.440Z,59.11
2022-09-25T19:34:45.631Z,58.13
2022-09-25T19:37:15.306Z,59.37
2022-09-25T19:40:04.773Z,59.81
2022-09-25T19:42:33.836Z,60.56
2022-09-25T19:45:01.878Z,59.63
2022-09-25T19:47:29.625Z,60.08
2022-09-25T19:49:57.541Z,60.71
2022-09-25T19:52:25.417Z,60.07
2022-09-25T19:54:52.913Z,60.33
2022-09-25T19:57:20.501Z,59.62
2022-09-25T19:59:49.335Z,59.57
2022-09-25T20:02:17.127Z,58.45
2022-09-25T20:04:45.052Z,58.50
2022-09-25T20:07:16.602Z,58.50
2022-09-25T20:09:44.709Z,56.48
2022-09-25T20:12:12.520Z,58.15
2022-09-25T20:14:40.700Z,57.83
2022-09-25T20:17:10.011Z,56.63
2022-09-25T20:19:38.396Z,58.11
2022-09-25T20:22:06.224Z,58.08
2022-09-25T20:24:33.839Z,57.18
2022-09-25T20:27:01.822Z,58.13
2022-09-25T20:29:29.818Z,58.46
2022-09-25T20:31:57.415Z,57.43
2022-09-25T20:34:25.200Z,58.59
2022-09-25T20:36:52.821Z,58.34
2022-09-25T20:39:21.684Z,58.54
2022-09-25T20:41:50.171Z,58.62
2022-09-25T20:44:19.777Z,60.20
2022-09-25T20:46:48.881Z,59.10
2022-09-25T20:49:20.050Z,58.42
2022-09-25T20:51:47.649Z,59.00
2022-09-25T20:54:15.901Z,59.35
2022-09-25T20:56:44.858Z,59.40
2022-09-25T20:59:12.716Z,57.03
2022-09-25T21:01:41.892Z,58.87
2022-09-25T21:04:10.741Z,58.98
2022-09-25T21:06:41.418Z,59.47
2022-09-25T21:09:24.041Z,58.99
2022-09-25T21:11:55.478Z,59.37
2022-09-25T21:14:28.026Z,59.82
2022-09-25T21:16:56.440Z,59.29
2022-09-25T21:19:24.562Z,59.90
2022-09-25T21:21:52.235Z,61.34
2022-09-25T21:24:21.929Z,60.32
2022-09-25T21:26:50.727Z,60.44
2022-09-25T21:29:19.412Z,59.33
2022-09-25T21:31:50.410Z,60.18
2022-09-25T21:34:19.989Z,60.53
2022-09-25T21:36:48.358Z,60.06
2022-09-25T21:39:16.483Z,61.15
2022-09-25T21:41:45.031Z,60.67
2022-09-25T21:44:16.198Z,60.68
2022-09-25T21:46:44.190Z,59.85
2022-09-25T21:49:18.828Z,59.92
2022-09-25T21:51:48.303Z,60.24
2022-09-25T21:54:17.137Z,61.00
2022-09-25T21:56:45.683Z,61.78
2022-09-25T21:59:13.486Z,60.62
2022-09-25T22:01:42.548Z,60.35
2022-09-25T22:04:14.222Z,59.79
2022-09-25T22:06:46.214Z,59.09
2022-09-25T22:09:24.255Z,58.14
2022-09-25T22:11:52.328Z,57.84
2022-09-25T22:14:21.855Z,57.38
2022-09-25T22:16:51.518Z,57.29
2022-09-25T22:19:24.789Z,57.05
2022-09-25T22:21:55.423Z,56.82
2022-09-25T22:24:23.196Z,56.53
2022-09-25T22:26:52.632Z,56.66
2022-09-25T22:29:21.380Z,56.60
2022-09-25T22:31:49.309Z,56.74
2022-09-25T22:34:22.575Z,56.76
2022-09-25T22:36:56.248Z,56.92
2022-09-25T22:39:26.604Z,56.85
2022-09-25T22:41:55.746Z,57.13
2022-09-25T22:44:23.826Z,56.91
2022-09-25T22:46:51.838Z,57.19
2022-09-25T22:49:19.767Z,57.17
2022-09-25T22:51:47.217Z,57.10
2022-09-25T22:54:15.425Z,57.28
2022-09-25T22:56:44.046Z,57.38
2022-09-25T22:59:18.512Z,57.75
2022-09-25T23:01:53.673Z,57.49
2022-09-25T23:04:24.404Z,57.36
2022-09-25T23:06:53.135Z,56.97
2022-09-25T23:09:25.913Z,57.44
2022-09-25T23:11:56.307Z,57.38
2022-09-25T23:14:28.460Z,57.46
2022-09-25T23:16:57.289Z,57.57
2022-09-25T23:19:25.429Z,57.72
2022-09-25T23:21:54.343Z,57.79
2022-09-25T23:24:22.921Z,57.89
2022-09-25T23:26:51.387Z,57.66
2022-09-25T23:29:20.958Z,57.91
2022-09-25T23:31:50.217Z,57.47
2022-09-25T23:34:18.932Z,57.67
2022-09-25T23:36:46.825Z,57.57
2022-09-25T23:39:20.156Z,57.24
2022-09-25T23:41:48.633Z,57.27
2022-09-25T23:44:16.705Z,57.25
2022-09-25T23:46:44.530Z,57.11
2022-09-25T23:49:13.557Z,57.01
2022-09-25T23:51:41.729Z,57.14
2022-09-25T23:54:10.769Z,56.95
2022-09-25T23:56:40.780Z,56.78
2022-09-25T23:59:11.910Z,56.64
